»·PEaware :: DAL1400 KLGB-KSAN

DAL1400 :: KLGB-KSAN

FLIGHT INFORMATION

Flight Status: Arrived
Operator:
Delta Air Lines
More flights by this operator :: More flights under this callsign
Pilot: Brad G. (30387)
Aircraft: CANADAIR CL-600 CRJ-200
(CRJ2)
More flights by this aircraft type
Origin: KLGB Long Beach
United States
Destination: KSAN San Diego Intl-Lindbergh
United States
More flights between these airports :: More routes between these airports
Route: +V25 PACIF V208 LAX118 CARDI MZB320 MZB
File this flight plan on PilotEdge
Remarks:
Altitude:
(Current/Filed)
11,000ft
Speed:
(Current/Filed)
290kts
Departed: 13-Nov-20 11:09 AM
Arrived: 13-Nov-20 11:41 AM
Distance/Time
Traveled:
81nm/0:32
Distance/Time
To Go:
Arrived

Flight Plot

Page will automatically refresh every two minutes.


Map Options




Map Legend


Flown Route
Filed Route
Departure Airport
Arrival Airport
Navaid (VOR, NDB)
Fix

Horizontal Profiles

Position Reports

Time Latitude Longitude Heading Altitude Ground
Speed
13-Nov-20 10:52 33.816978 -118.146073 265 37ft 0kts
13-Nov-20 10:53 33.816978 -118.146073 265 37ft 0kts
13-Nov-20 10:54 33.816978 -118.146073 265 37ft 0kts
13-Nov-20 10:55 33.816978 -118.146073 265 37ft 0kts
13-Nov-20 10:56 33.816978 -118.146073 265 37ft 0kts
13-Nov-20 10:57 33.816978 -118.146073 265 37ft 0kts
13-Nov-20 10:58 33.816978 -118.146073 265 37ft 0kts
13-Nov-20 10:59 33.816978 -118.146073 265 37ft 0kts
13-Nov-20 11:00 33.816978 -118.146073 265 37ft 0kts
13-Nov-20 11:01 33.816978 -118.146073 265 37ft 0kts
13-Nov-20 11:02 33.815785 -118.146954 151 36ft 13kts
13-Nov-20 11:03 33.813952 -118.144795 134 33ft 18kts
13-Nov-20 11:04 33.809214 -118.139072 135 28ft 20kts
13-Nov-20 11:05 33.807773 -118.137597 184 27ft 0kts
13-Nov-20 11:06 33.807773 -118.137597 184 27ft 0kts
13-Nov-20 11:07 33.807385 -118.137871 225 27ft 10kts
13-Nov-20 11:08 33.812503 -118.145023 314 32ft 133kts
13-Nov-20 11:09 33.839330 -118.196975 257 1884ft 219kts
13-Nov-20 11:10 33.785425 -118.225326 190 2868ft 254kts
13-Nov-20 11:11 33.724706 -118.210950 135 5300ft 235kts
13-Nov-20 11:12 33.677485 -118.160874 137 7598ft 237kts
13-Nov-20 11:13 33.630225 -118.108274 138 10226ft 243kts
13-Nov-20 11:14 33.575602 -118.047278 136 11013ft 275kts
13-Nov-20 11:15 33.518026 -117.986008 139 10794ft 277kts
13-Nov-20 11:16 33.458458 -117.926335 140 10720ft 303kts
13-Nov-20 11:17 33.389785 -117.855837 138 11095ft 357kts
13-Nov-20 11:18 33.310244 -117.770526 132 11131ft 388kts
13-Nov-20 11:19 33.276461 -117.656310 100 10833ft 359kts
13-Nov-20 11:20 33.243265 -117.550032 137 10782ft 335kts
13-Nov-20 11:21 33.164753 -117.493908 145 10257ft 329kts
13-Nov-20 11:22 33.088235 -117.440908 151 8413ft 321kts
13-Nov-20 11:23 33.019946 -117.390057 146 7868ft 273kts
13-Nov-20 11:24 32.957478 -117.346802 151 6940ft 242kts
13-Nov-20 11:25 32.903701 -117.308056 147 6796ft 219kts
13-Nov-20 11:26 32.854452 -117.268752 143 6729ft 215kts
13-Nov-20 11:27 32.836306 -117.205517 104 6807ft 221kts
13-Nov-20 11:28 32.818902 -117.131726 106 5645ft 241kts
13-Nov-20 11:29 32.806348 -117.054370 98 4694ft 230kts
13-Nov-20 11:30 32.793834 -116.983213 104 4921ft 213kts
13-Nov-20 11:31 32.777831 -116.915272 102 4886ft 215kts
13-Nov-20 11:32 32.741051 -116.868351 171 4984ft 207kts
13-Nov-20 11:33 32.682065 -116.863807 192 4796ft 217kts
13-Nov-20 11:34 32.658001 -116.919534 282 3181ft 196kts
13-Nov-20 11:35 32.671839 -116.974742 289 3064ft 167kts
13-Nov-20 11:36 32.689940 -117.024979 293 2829ft 183kts
13-Nov-20 11:37 32.708436 -117.085075 283 1959ft 203kts
13-Nov-20 11:38 32.721612 -117.141757 288 1010ft 142kts
13-Nov-20 11:39 32.733115 -117.188059 286 23ft 111kts
13-Nov-20 11:40 32.734218 -117.195085 249 22ft 11kts
13-Nov-20 11:41 32.734072 -117.195602 254 22ft 0kts
13-Nov-20 11:42 32.734072 -117.195602 254 22ft 0kts
13-Nov-20 11:43 32.734022 -117.196720 262 22ft 7kts
13-Nov-20 11:44 32.733402 -117.197801 283 22ft 3kts
13-Nov-20 11:45 32.733409 -117.197835 283 22ft 0kts
13-Nov-20 11:46 32.733409 -117.197835 283 22ft 0kts
13-Nov-20 11:47 32.733409 -117.197835 283 22ft 0kts
13-Nov-20 11:48 32.733409 -117.197835 283 22ft 0kts

Navigation Log

Ident Type
Flight plan parsing failed, navigation log unavailable